Time;durP1;ratioP1;P1;durP2;ratioP2;P2;SDS_P1;SDS_P2;PMS_P1;PMS_P2;Temp;Humidity;BMP_temperature;BMP_pressure;BME280_temperature;BME280_humidity;BME280_pressure;Samples;Min_cycle;Max_cycle;Signal;HPM_P1;HPM_P2
2022/07/03 00:01:31;;;;;;;17.27;9.48;;;;;;;19.91;100.00;93567.72;5010469;28;20445;-78
2022/07/03 00:03:58;;;;;;;14.63;8.68;;;;;;;19.85;100.00;93569.50;5010326;28;20052;-77
2022/07/03 00:06:27;;;;;;;14.95;8.95;;;;;;;19.80;100.00;93566.88;4997174;28;20046;-77
2022/07/03 00:08:54;;;;;;;13.57;8.45;;;;;;;19.76;100.00;93566.63;5010709;28;20128;-77
2022/07/03 00:11:21;;;;;;;15.60;8.93;;;;;;;19.71;100.00;93564.00;5010569;28;20096;-77
2022/07/03 00:13:48;;;;;;;14.05;7.53;;;;;;;19.73;100.00;93567.13;4996953;28;20092;-77
2022/07/03 00:16:15;;;;;;;11.75;7.18;;;;;;;19.70;100.00;93561.66;5011062;28;20053;-77
2022/07/03 00:18:42;;;;;;;12.52;7.55;;;;;;;19.66;100.00;93571.06;5010482;28;20453;-77
2022/07/03 00:21:11;;;;;;;13.10;7.68;;;;;;;19.62;100.00;93557.72;5010860;28;20046;-77
2022/07/03 00:23:45;;;;;;;13.55;7.10;;;;;;;19.60;100.00;93562.44;5009709;28;20045;-77
2022/07/03 00:26:13;;;;;;;11.43;7.30;;;;;;;19.57;100.00;93555.09;5009704;28;20776;-77
2022/07/03 00:28:41;;;;;;;13.57;7.10;;;;;;;19.47;100.00;93559.28;5009963;28;20133;-77
2022/07/03 00:31:10;;;;;;;11.68;7.00;;;;;;;19.42;100.00;93559.25;5009802;28;20046;-77
2022/07/03 00:33:37;;;;;;;13.98;7.78;;;;;;;19.36;100.00;93561.06;5009576;28;20046;-76
2022/07/03 00:36:04;;;;;;;15.10;7.63;;;;;;;19.25;100.00;93554.25;5009294;28;20108;-76
2022/07/03 00:38:34;;;;;;;10.55;7.25;;;;;;;19.29;100.00;93557.91;5009362;28;20097;-76
2022/07/03 00:41:09;;;;;;;11.50;6.95;;;;;;;19.24;100.00;93557.88;5009315;28;20048;-76
2022/07/03 00:43:35;;;;;;;11.30;6.22;;;;;;;19.25;100.00;93545.66;5009346;28;20042;-76
2022/07/03 00:46:08;;;;;;;10.57;6.75;;;;;;;19.21;100.00;93543.56;5002511;28;20117;-76
2022/07/03 00:48:38;;;;;;;11.20;6.63;;;;;;;19.12;100.00;93526.09;5006088;28;20053;-75
2022/07/03 00:51:08;;;;;;;13.48;8.23;;;;;;;19.14;100.00;93544.81;4996380;28;20137;-76
2022/07/03 00:53:37;;;;;;;10.95;7.63;;;;;;;19.06;100.00;93549.50;4989744;28;20082;-75
2022/07/03 00:56:12;;;;;;;10.98;6.82;;;;;;;19.06;100.00;93541.69;4989454;28;20050;-76
2022/07/03 00:58:39;;;;;;;13.10;8.30;;;;;;;19.05;100.00;93532.31;4989505;28;20104;-76
2022/07/03 01:01:06;;;;;;;14.40;7.50;;;;;;;19.00;100.00;93531.47;4989826;28;20078;-76
2022/07/03 01:03:36;;;;;;;11.57;7.53;;;;;;;19.02;100.00;93524.97;4989656;28;20042;-76
2022/07/03 01:06:11;;;;;;;13.75;7.72;;;;;;;19.01;100.00;93530.41;4999652;28;20054;-77
2022/07/03 01:08:43;;;;;;;11.73;7.65;;;;;;;18.89;100.00;93512.44;5008939;28;20042;-76
2022/07/03 01:11:21;;;;;;;13.10;6.97;;;;;;;18.92;100.00;93512.69;5008407;28;20050;-76
2022/07/03 01:14:01;;;;;;;10.43;6.82;;;;;;;18.94;100.00;93520.25;5008735;28;20038;-76
2022/07/03 01:16:34;;;;;;;9.82;6.57;;;;;;;18.96;100.00;93531.19;5008760;28;20054;-76
2022/07/03 01:19:11;;;;;;;10.80;7.38;;;;;;;18.90;100.00;93517.38;5009354;28;20047;-76
2022/07/03 01:21:43;;;;;;;14.63;8.30;;;;;;;18.82;100.00;93512.66;5008924;28;20046;-76
2022/07/03 01:24:29;;;;;;;14.35;8.30;;;;;;;18.83;100.00;93528.03;5008738;28;20092;-76
2022/07/03 01:27:01;;;;;;;11.38;7.05;;;;;;;18.81;100.00;93524.91;5008994;28;20064;-76
2022/07/03 01:29:38;;;;;;;13.75;7.88;;;;;;;18.53;100.00;93494.81;5008832;28;20469;-76
2022/07/03 01:32:07;;;;;;;13.05;8.52;;;;;;;18.62;100.00;93511.53;5009251;28;20046;-76
2022/07/03 01:34:39;;;;;;;14.80;7.90;;;;;;;18.52;100.00;93506.28;5008940;28;20042;-76
2022/07/03 01:37:10;;;;;;;14.80;7.85;;;;;;;18.59;100.00;93525.03;5008495;28;20057;-76
2022/07/03 01:39:40;;;;;;;18.55;9.30;;;;;;;18.47;100.00;93517.41;5008378;28;20494;-76
2022/07/03 01:42:10;;;;;;;13.77;9.07;;;;;;;18.29;100.00;93516.00;5009140;28;20046;-76
2022/07/03 01:44:40;;;;;;;14.30;9.00;;;;;;;18.29;100.00;93527.19;5008698;28;20064;-76
2022/07/03 01:47:08;;;;;;;16.67;8.85;;;;;;;18.14;100.00;93517.47;5008790;28;21216;-77
2022/07/03 01:49:37;;;;;;;14.93;8.85;;;;;;;18.12;100.00;93514.34;5008883;28;20048;-76
2022/07/03 01:52:05;;;;;;;20.05;9.90;;;;;;;18.16;100.00;93525.03;5008632;28;20080;-77
2022/07/03 01:54:34;;;;;;;14.98;8.50;;;;;;;18.23;100.00;93524.81;5008759;28;20116;-76
2022/07/03 01:57:02;;;;;;;14.73;9.05;;;;;;;18.21;100.00;93526.88;5008621;28;20046;-77
2022/07/03 01:59:30;;;;;;;16.58;9.68;;;;;;;18.21;100.00;93530.25;5008468;28;20050;-77
2022/07/03 02:02:05;;;;;;;14.45;9.43;;;;;;;18.22;100.00;93521.41;5008512;28;20057;-76
2022/07/03 02:04:34;;;;;;;18.20;9.50;;;;;;;18.22;100.00;93521.41;5008485;28;20046;-76
2022/07/03 02:07:06;;;;;;;16.05;8.32;;;;;;;18.22;100.00;93528.44;5008795;28;20050;-76
2022/07/03 02:09:42;;;;;;;18.35;9.27;;;;;;;18.22;100.00;93524.03;5008721;28;20053;-76
2022/07/03 02:12:14;;;;;;;17.83;8.48;;;;;;;18.29;100.00;93529.78;5008552;28;20046;-76
2022/07/03 02:14:49;;;;;;;21.20;9.98;;;;;;;18.27;100.00;93525.88;5008303;28;20490;-76
2022/07/03 02:17:18;;;;;;;21.05;11.15;;;;;;;18.13;100.00;93521.09;5008570;28;20222;-76
2022/07/03 02:19:52;;;;;;;18.58;10.18;;;;;;;18.17;100.00;93526.59;5008402;28;20522;-77
2022/07/03 02:22:21;;;;;;;18.30;10.75;;;;;;;18.17;100.00;93526.59;5011166;28;20046;-77
2022/07/03 02:24:48;;;;;;;17.48;9.80;;;;;;;18.12;100.00;93523.94;5012005;28;20473;-77
2022/07/03 02:27:20;;;;;;;18.40;11.05;;;;;;;17.92;100.00;93501.94;5009679;28;20081;-76
2022/07/03 02:29:55;;;;;;;19.10;11.02;;;;;;;18.12;100.00;93531.75;5011621;28;20433;-77
2022/07/03 02:32:23;;;;;;;22.70;11.10;;;;;;;18.05;100.00;93529.31;5011898;28;20061;-77
2022/07/03 02:34:57;;;;;;;19.85;11.27;;;;;;;18.00;100.00;93529.28;5011626;28;20327;-77
2022/07/03 02:37:29;;;;;;;18.83;11.40;;;;;;;17.97;100.00;93529.78;5012109;28;20475;-77
2022/07/03 02:40:04;;;;;;;21.35;11.35;;;;;;;18.01;100.00;93530.88;5011911;28;20085;-77
2022/07/03 02:42:38;;;;;;;20.48;12.18;;;;;;;17.99;100.00;93531.09;5011861;28;20429;-77
2022/07/03 02:45:09;;;;;;;22.48;12.30;;;;;;;17.92;100.00;93525.34;5011579;28;20046;-77
2022/07/03 02:47:46;;;;;;;21.05;11.93;;;;;;;18.01;100.00;93538.66;5011727;28;20169;-77
2022/07/03 02:50:17;;;;;;;23.75;11.52;;;;;;;17.94;100.00;93531.06;5011410;28;20498;-77
2022/07/03 02:52:55;;;;;;;19.63;11.10;;;;;;;18.02;100.00;93545.41;5011619;28;20046;-77
2022/07/03 02:55:35;;;;;;;19.15;12.07;;;;;;;18.04;100.00;93548.53;5011290;28;20552;-77
2022/07/03 02:58:13;;;;;;;20.17;11.00;;;;;;;18.05;100.00;93557.13;5011542;28;20046;-77
2022/07/03 03:00:53;;;;;;;18.45;10.70;;;;;;;18.00;100.00;93550.88;5011312;28;20050;-76
2022/07/03 03:03:27;;;;;;;21.13;12.00;;;;;;;17.98;100.00;93558.13;5011396;28;20045;-77
2022/07/03 03:05:57;;;;;;;19.27;11.80;;;;;;;17.97;100.00;93556.53;5011101;28;20107;-76
2022/07/03 03:08:34;;;;;;;22.98;11.98;;;;;;;17.90;100.00;93559.34;5011204;28;20049;-77
2022/07/03 03:11:22;;;;;;;23.02;12.07;;;;;;;17.89;100.00;93560.41;5011156;28;20494;-76
2022/07/03 03:13:54;;;;;;;21.65;12.88;;;;;;;17.82;100.00;93553.81;5010898;28;20387;-76
2022/07/03 03:16:23;;;;;;;20.45;12.13;;;;;;;17.81;100.00;93550.44;5011292;28;20437;-76
2022/07/03 03:18:50;;;;;;;21.27;12.40;;;;;;;17.85;100.00;93556.72;5011018;28;20465;-76
2022/07/03 03:21:19;;;;;;;22.02;11.93;;;;;;;17.83;100.00;93556.16;5010694;28;20502;-76
2022/07/03 03:23:49;;;;;;;17.95;11.68;;;;;;;17.84;100.00;93560.34;5010961;28;20490;-77
2022/07/03 03:26:17;;;;;;;26.42;12.35;;;;;;;17.79;100.00;93559.50;5011094;28;20868;-77
2022/07/03 03:28:45;;;;;;;23.55;13.48;;;;;;;17.83;100.00;93566.56;5011331;28;20465;-77
2022/07/03 03:31:12;;;;;;;27.13;12.93;;;;;;;17.80;100.00;93566.25;5011287;28;20457;-77
2022/07/03 03:33:43;;;;;;;24.00;12.88;;;;;;;17.90;100.00;93559.34;5009676;28;20050;-76
2022/07/03 03:36:11;;;;;;;25.95;12.63;;;;;;;17.94;100.00;93566.66;5010705;28;20057;-76
2022/07/03 03:38:39;;;;;;;20.90;12.15;;;;;;;17.87;100.00;93554.66;5010809;28;20053;-76
2022/07/03 03:41:06;;;;;;;18.25;11.77;;;;;;;17.97;100.00;93566.16;5010964;28;20120;-76
2022/07/03 03:43:35;;;;;;;21.48;12.60;;;;;;;17.96;100.00;93567.22;5010711;28;20046;-76
2022/07/03 03:46:03;;;;;;;21.05;11.38;;;;;;;18.02;100.00;93572.19;5010742;28;20398;-76
2022/07/03 03:48:32;;;;;;;20.35;11.60;;;;;;;18.02;100.00;93568.81;5005190;28;20042;-76
2022/07/03 03:51:01;;;;;;;18.83;11.60;;;;;;;18.09;100.00;93572.00;5005893;28;20463;-76
2022/07/03 03:53:31;;;;;;;20.40;12.05;;;;;;;18.06;100.00;93563.91;5010415;28;21268;-75
2022/07/03 03:56:02;;;;;;;22.85;11.82;;;;;;;18.10;100.00;93563.19;5010618;28;20053;-76
2022/07/03 03:58:30;;;;;;;21.95;12.90;;;;;;;18.18;100.00;93571.56;5010604;28;20096;-76
2022/07/03 04:00:57;;;;;;;19.08;11.20;;;;;;;18.19;100.00;93576.50;4996827;28;20045;-76
2022/07/03 04:03:24;;;;;;;19.38;11.85;;;;;;;18.23;100.00;93582.78;5011063;28;20441;-77
2022/07/03 04:05:51;;;;;;;19.48;11.10;;;;;;;18.23;100.00;93577.59;4999991;28;20511;-76
2022/07/03 04:08:20;;;;;;;18.70;11.70;;;;;;;18.28;100.00;93582.81;4992730;28;20053;-76
2022/07/03 04:10:47;;;;;;;20.70;12.02;;;;;;;18.35;100.00;93579.22;5001709;28;20593;-77
2022/07/03 04:13:14;;;;;;;18.48;10.70;;;;;;;18.32;100.00;93570.09;5010778;28;20042;-77
2022/07/03 04:15:41;;;;;;;21.00;12.00;;;;;;;18.43;100.00;93586.59;5010555;28;20395;-77
2022/07/03 04:18:08;;;;;;;19.00;10.98;;;;;;;18.51;100.00;93574.94;5010429;28;20112;-77
2022/07/03 04:20:35;;;;;;;17.38;11.55;;;;;;;18.60;100.00;93580.47;5010570;28;20092;-77
2022/07/03 04:23:02;;;;;;;18.98;11.73;;;;;;;18.66;100.00;93576.84;5010116;28;20054;-77
2022/07/03 04:25:30;;;;;;;21.30;11.07;;;;;;;18.76;100.00;93579.53;5010587;28;20042;-77
2022/07/03 04:27:57;;;;;;;21.65;11.30;;;;;;;18.78;100.00;93566.22;5010220;28;20104;-77
2022/07/03 04:30:24;;;;;;;21.73;11.95;;;;;;;18.85;100.00;93564.22;5009879;28;20509;-77
2022/07/03 04:32:51;;;;;;;21.02;11.02;;;;;;;19.01;100.00;93572.88;5007504;28;20042;-77
2022/07/03 04:35:18;;;;;;;27.05;12.57;;;;;;;19.12;100.00;93568.50;5009858;28;20038;-77
2022/07/03 04:37:45;;;;;;;19.00;11.63;;;;;;;19.19;100.00;93574.28;5010026;28;20466;-76
2022/07/03 04:40:13;;;;;;;23.77;11.60;;;;;;;19.20;100.00;93570.63;5009955;28;20551;-77
2022/07/03 04:42:41;;;;;;;18.70;11.77;;;;;;;19.30;100.00;93574.34;5009679;28;20108;-78
2022/07/03 04:45:09;;;;;;;17.05;11.38;;;;;;;19.36;100.00;93573.31;5009841;28;20115;-77
2022/07/03 04:47:36;;;;;;;18.50;11.60;;;;;;;19.40;100.00;93569.16;5010170;28;20434;-77
2022/07/03 04:50:03;;;;;;;18.60;11.13;;;;;;;19.50;100.00;93576.22;5009758;28;20096;-77
2022/07/03 04:52:30;;;;;;;18.35;11.63;;;;;;;19.57;100.00;93573.34;5010299;28;20050;-77
2022/07/03 04:54:56;;;;;;;17.80;10.73;;;;;;;19.61;100.00;93575.22;5010415;28;20127;-77
2022/07/03 04:57:23;;;;;;;20.73;11.80;;;;;;;19.72;100.00;93567.41;5009933;28;20100;-77
2022/07/03 04:59:51;;;;;;;18.50;10.85;;;;;;;19.79;100.00;93567.94;4997472;28;20120;-76
2022/07/03 05:02:18;;;;;;;17.75;11.15;;;;;;;19.91;100.00;93570.31;5008358;28;20042;-77
2022/07/03 05:04:45;;;;;;;17.50;11.65;;;;;;;20.00;100.00;93568.75;5008116;28;20042;-76
2022/07/03 05:07:11;;;;;;;22.52;12.07;;;;;;;20.09;100.00;93570.88;4997757;28;20465;-76
2022/07/03 05:09:38;;;;;;;27.83;15.32;;;;;;;19.90;100.00;93566.91;5009647;28;20046;-77
2022/07/03 05:12:06;;;;;;;62.28;28.75;;;;;;;19.71;100.00;93565.81;5009761;28;20058;-77
2022/07/03 05:14:33;;;;;;;43.20;22.85;;;;;;;19.76;100.00;93565.84;5009407;28;20046;-77
2022/07/03 05:17:01;;;;;;;49.50;22.45;;;;;;;19.48;100.00;93534.78;5009141;28;20046;-77
2022/07/03 05:19:28;;;;;;;35.33;18.13;;;;;;;19.71;100.00;93568.44;5009564;28;20121;-77
2022/07/03 05:21:55;;;;;;;24.92;14.45;;;;;;;19.82;100.00;93571.84;5009302;28;20092;-77
2022/07/03 05:24:23;;;;;;;26.67;15.00;;;;;;;19.96;100.00;93572.97;5009527;28;20490;-77
2022/07/03 05:26:50;;;;;;;25.75;14.95;;;;;;;19.97;100.00;93560.69;5009486;28;20054;-77
2022/07/03 05:29:24;;;;;;;22.60;14.40;;;;;;;20.03;100.00;93552.63;5008444;28;20045;-77
2022/07/03 05:31:52;;;;;;;26.10;14.32;;;;;;;20.30;100.00;93571.66;5008321;28;20050;-77
2022/07/03 05:34:23;;;;;;;24.02;13.70;;;;;;;20.23;100.00;93573.75;5008788;28;20124;-77
2022/07/03 05:36:50;;;;;;;23.80;12.50;;;;;;;20.46;100.00;93571.66;5008061;28;20113;-77
2022/07/03 05:39:34;;;;;;;23.65;13.88;;;;;;;20.72;100.00;93572.38;5001765;28;20811;-77
2022/07/03 05:42:03;;;;;;;25.95;14.70;;;;;;;21.05;100.00;93570.25;5005524;28;20050;-77
2022/07/03 05:44:30;;;;;;;23.73;13.07;;;;;;;21.29;100.00;93572.25;5002548;28;20050;-77
2022/07/03 05:46:59;;;;;;;30.75;14.15;;;;;;;21.51;100.00;93571.09;5004889;28;20136;-77
2022/07/03 05:49:33;;;;;;;30.48;16.00;;;;;;;21.72;100.00;93568.41;5006369;28;20057;-76
2022/07/03 05:52:04;;;;;;;28.30;16.23;;;;;;;21.66;100.00;93565.00;5003934;28;20181;-77
2022/07/03 05:54:31;;;;;;;41.67;19.90;;;;;;;21.52;100.00;93577.88;5006550;28;20119;-77
2022/07/03 05:56:58;;;;;;;32.13;16.75;;;;;;;21.66;100.00;93577.31;5008243;28;20104;-79
2022/07/03 05:59:25;;;;;;;30.33;14.95;;;;;;;21.91;100.00;93571.19;5005581;28;20050;-78
2022/07/03 06:01:52;;;;;;;31.48;16.42;;;;;;;21.94;100.00;93562.78;5009878;28;20119;-78
2022/07/03 06:04:18;;;;;;;33.67;17.48;;;;;;;21.76;100.00;93574.69;5013095;28;20049;-79
2022/07/03 06:06:46;;;;;;;36.17;17.63;;;;;;;21.86;100.00;93566.75;4999596;28;20046;-79
2022/07/03 06:09:13;;;;;;;36.25;18.77;;;;;;;22.13;99.64;93573.38;5013085;28;20510;-78
2022/07/03 06:11:40;;;;;;;29.00;17.23;;;;;;;22.61;97.25;93577.22;5012528;28;20096;-78
2022/07/03 06:14:07;;;;;;;35.83;18.02;;;;;;;22.95;92.59;93578.16;5012985;28;20498;-78
2022/07/03 06:16:33;;;;;;;38.75;18.67;;;;;;;22.57;94.19;93557.84;5013019;28;20494;-79
2022/07/03 06:19:00;;;;;;;33.50;17.52;;;;;;;22.93;93.48;93581.09;5012890;28;20422;-79
2022/07/03 06:21:27;;;;;;;39.40;19.00;;;;;;;23.14;91.51;93575.59;5013247;28;20042;-78
2022/07/03 06:23:55;;;;;;;39.78;18.67;;;;;;;23.32;89.77;93582.00;5012515;28;20049;-78
2022/07/03 06:26:22;;;;;;;33.97;17.20;;;;;;;23.34;91.33;93572.00;5000741;28;20152;-78
2022/07/03 06:28:49;;;;;;;32.35;18.23;;;;;;;23.44;91.10;93576.34;4997628;28;20046;-79
2022/07/03 06:31:15;;;;;;;35.78;17.67;;;;;;;23.94;88.28;93574.38;5013133;28;20651;-78
2022/07/03 06:33:42;;;;;;;37.17;18.70;;;;;;;24.51;83.82;93569.06;4999194;28;20108;-78
2022/07/03 06:36:09;;;;;;;32.00;16.25;;;;;;;24.78;83.40;93564.13;5004721;28;20109;-77
2022/07/03 06:38:35;;;;;;;34.63;15.45;;;;;;;24.95;80.90;93572.25;4995408;28;20042;-79
2022/07/03 06:41:04;;;;;;;25.05;12.88;;;;;;;25.01;82.14;93572.97;4992905;28;20101;-79
2022/07/03 06:43:30;;;;;;;30.55;13.45;;;;;;;25.08;80.52;93564.66;4992575;28;20096;-79
2022/07/03 06:45:57;;;;;;;30.33;14.20;;;;;;;24.84;78.88;93570.88;4999769;28;20441;-79
2022/07/03 06:48:24;;;;;;;29.60;13.57;;;;;;;25.45;78.01;93562.88;5006784;28;20100;-79
2022/07/03 06:50:50;;;;;;;25.10;13.55;;;;;;;25.90;76.69;93564.06;4998957;28;20046;-78
2022/07/03 06:53:17;;;;;;;26.73;12.93;;;;;;;26.27;74.28;93556.94;5000498;28;20060;-79
2022/07/03 06:55:44;;;;;;;29.98;14.80;;;;;;;25.84;72.69;93560.78;5011971;28;20096;-80
2022/07/03 06:58:12;;;;;;;35.72;16.90;;;;;;;24.77;77.53;93557.34;5005352;28;20046;-79
2022/07/03 07:00:39;;;;;;;42.47;18.25;;;;;;;25.09;76.49;93558.34;5009850;28;20103;-79
2022/07/03 07:03:06;;;;;;;37.80;18.23;;;;;;;25.58;76.21;93548.19;5009682;28;20096;-78
2022/07/03 07:05:33;;;;;;;35.65;16.70;;;;;;;26.15;70.89;93546.91;5012106;28;20559;-79
2022/07/03 07:07:59;;;;;;;36.03;17.17;;;;;;;26.68;72.00;93539.34;5011752;28;20399;-79
2022/07/03 07:10:26;;;;;;;28.38;15.52;;;;;;;26.50;69.17;93538.47;5009202;28;20050;-79
2022/07/03 07:12:53;;;;;;;39.25;15.57;;;;;;;26.95;68.49;93537.59;5012002;28;20050;-79
2022/07/03 07:15:21;;;;;;;28.63;13.63;;;;;;;26.79;68.16;93531.16;5011819;28;20049;-77
2022/07/03 07:17:48;;;;;;;22.70;12.15;;;;;;;26.45;69.65;93520.16;5011607;28;20091;-77
2022/07/03 07:20:15;;;;;;;28.10;14.45;;;;;;;26.92;68.82;93532.16;5011625;28;20050;-76
2022/07/03 07:22:41;;;;;;;24.77;11.98;;;;;;;27.59;65.77;93540.88;5011579;28;20092;-77
2022/07/03 07:25:08;;;;;;;28.20;13.15;;;;;;;28.05;65.81;93539.78;4994629;28;20522;-77
2022/07/03 07:27:35;;;;;;;23.92;11.57;;;;;;;28.02;64.51;93535.91;5009123;28;20049;-76
2022/07/03 07:30:02;;;;;;;20.45;11.30;;;;;;;28.20;62.24;93543.81;5011335;28;20054;-76
2022/07/03 07:32:30;;;;;;;17.80;10.10;;;;;;;28.33;62.03;93532.31;5010880;28;20613;-76
2022/07/03 07:34:57;;;;;;;13.73;10.30;;;;;;;28.90;61.19;93537.59;5011125;28;20100;-76
2022/07/03 07:37:24;;;;;;;18.30;10.57;;;;;;;29.35;59.31;93541.59;5010529;28;20058;-77
2022/07/03 07:39:50;;;;;;;17.25;10.13;;;;;;;29.73;58.40;93540.75;5010937;28;20456;-76
2022/07/03 07:42:17;;;;;;;17.27;9.98;;;;;;;29.56;58.05;93531.06;5008004;28;20049;-77
2022/07/03 07:44:44;;;;;;;16.60;9.82;;;;;;;29.87;57.89;93534.41;5008321;28;20045;-77
2022/07/03 07:47:10;;;;;;;19.60;10.48;;;;;;;29.77;58.07;93532.13;5010880;28;20042;-77
2022/07/03 07:49:39;;;;;;;16.10;9.98;;;;;;;30.15;54.60;93536.53;5010589;28;20097;-77
2022/07/03 07:52:06;;;;;;;17.02;9.57;;;;;;;30.26;53.82;93531.59;5010834;28;20049;-78
2022/07/03 07:54:32;;;;;;;24.40;10.45;;;;;;;30.75;54.78;93530.94;5010779;28;21174;-77
2022/07/03 07:56:59;;;;;;;18.23;9.32;;;;;;;30.14;53.93;93524.38;5010479;28;20046;-77
2022/07/03 07:59:26;;;;;;;18.70;9.00;;;;;;;30.80;52.90;93533.38;5010470;28;20502;-77
2022/07/03 08:07:22;;;;;;;14.82;9.07;;;;;;;30.88;52.45;93531.75;4999741;28;20278;-77
2022/07/03 08:09:49;;;;;;;16.80;8.82;;;;;;;31.16;50.67;93528.41;5010596;28;20096;-78
2022/07/03 08:12:16;;;;;;;16.10;8.82;;;;;;;30.64;52.02;93524.50;5010637;28;20053;-78
2022/07/03 08:14:42;;;;;;;15.68;9.10;;;;;;;31.02;52.99;93530.63;5010768;28;20116;-78
2022/07/03 08:17:09;;;;;;;12.98;9.35;;;;;;;30.57;52.57;93519.75;5010020;28;20494;-78
2022/07/03 08:19:36;;;;;;;13.15;8.07;;;;;;;30.24;52.36;93515.25;5009898;28;20514;-77
2022/07/03 08:22:03;;;;;;;16.25;8.52;;;;;;;30.26;52.34;93531.59;5010102;28;20038;-78
2022/07/03 08:24:31;;;;;;;16.50;8.70;;;;;;;30.46;53.72;93524.69;5010311;28;20045;-78
2022/07/03 08:26:59;;;;;;;13.35;8.20;;;;;;;30.16;50.79;93532.78;5010194;28;20089;-78
2022/07/03 08:29:27;;;;;;;13.90;7.97;;;;;;;29.73;49.34;93532.81;5010323;28;20104;-78
2022/07/03 08:31:54;;;;;;;11.90;8.23;;;;;;;30.01;51.52;93528.84;5010091;28;20100;-77
2022/07/03 08:34:21;;;;;;;11.80;6.90;;;;;;;29.41;49.79;93528.94;5010131;28;20516;-77
2022/07/03 08:36:47;;;;;;;12.23;7.43;;;;;;;30.28;51.62;93524.09;5010090;28;20054;-77
2022/07/03 08:39:14;;;;;;;11.57;7.50;;;;;;;31.01;50.39;93526.44;5009677;28;20054;-77
2022/07/03 08:41:42;;;;;;;11.80;7.22;;;;;;;31.55;45.62;93503.38;5009626;28;20042;-77
2022/07/03 08:44:12;;;;;;;16.80;7.88;;;;;;;32.16;46.19;93514.16;5010201;28;20142;-78
2022/07/03 08:46:40;;;;;;;9.23;6.68;;;;;;;31.29;49.55;93526.53;5000057;28;20054;-78
2022/07/03 08:49:08;;;;;;;10.88;7.55;;;;;;;30.56;52.52;93523.50;4990424;28;20096;-77
2022/07/03 08:51:47;;;;;;;10.18;7.45;;;;;;;30.80;54.79;93520.13;5007128;28;20046;-77
2022/07/03 08:57:11;;;;;;;11.45;6.65;;;;;;;30.92;55.75;93514.03;5005688;28;20058;-78
2022/07/03 08:59:40;;;;;;;8.68;7.25;;;;;;;31.40;53.63;93526.88;5008690;28;20042;-78
2022/07/03 09:02:07;;;;;;;10.68;6.82;;;;;;;30.82;51.74;93521.66;5009437;28;20061;-78
2022/07/03 09:04:34;;;;;;;11.77;7.53;;;;;;;31.15;50.34;93524.19;5009718;28;20108;-78
2022/07/03 09:07:01;;;;;;;10.13;8.50;;;;;;;31.66;52.34;93522.28;5010332;28;20128;-77
2022/07/03 09:09:29;;;;;;;11.88;6.28;;;;;;;32.11;46.68;93513.28;5009413;28;20092;-80
2022/07/03 09:11:55;;;;;;;15.40;7.72;;;;;;;32.78;46.08;93517.22;5009623;28;20429;-79
2022/07/03 09:14:24;;;;;;;8.35;6.57;;;;;;;32.29;42.83;93518.28;5009291;28;20517;-81
2022/07/03 09:16:50;;;;;;;8.60;6.18;;;;;;;32.27;46.17;93517.84;5009214;28;20054;-80
2022/07/03 09:19:43;;;;;;;9.13;6.38;;;;;;;31.64;44.06;93501.38;5009313;28;20053;-81
2022/07/03 09:22:24;;;;;;;6.95;5.35;;;;;;;32.13;41.89;93510.28;5009112;28;20048;-80
2022/07/03 09:24:52;;;;;;;10.68;5.20;;;;;;;31.35;43.39;93503.22;5009513;28;20494;-80
2022/07/03 09:27:21;;;;;;;8.93;6.25;;;;;;;31.91;45.08;93488.47;5008904;28;20045;-80
2022/07/03 09:30:03;;;;;;;11.18;5.85;;;;;;;32.08;45.36;93499.91;5009592;28;20046;-80
2022/07/03 09:32:34;;;;;;;10.23;6.30;;;;;;;31.98;46.89;93496.63;5012680;28;20287;-79
2022/07/03 09:35:20;;;;;;;9.15;6.15;;;;;;;31.04;52.18;93504.53;5013424;28;20418;-79
2022/07/03 09:37:55;;;;;;;10.30;6.95;;;;;;;31.24;52.08;93513.47;5013358;28;20387;-80
2022/07/03 09:40:23;;;;;;;9.40;6.57;;;;;;;30.57;54.37;93509.13;5013462;28;20053;-79
2022/07/03 09:43:01;;;;;;;8.07;6.85;;;;;;;30.22;55.92;93504.22;5013659;28;20140;-80
2022/07/03 09:45:49;;;;;;;8.95;6.55;;;;;;;30.76;56.00;93510.50;5010322;28;20045;-80
2022/07/03 09:48:23;;;;;;;9.32;7.10;;;;;;;30.57;56.53;93497.75;5013433;28;20108;-81
2022/07/03 09:50:49;;;;;;;8.70;6.63;;;;;;;30.48;56.58;93495.19;4999453;28;20103;-81
2022/07/03 09:53:16;;;;;;;11.27;6.70;;;;;;;30.62;56.18;93492.22;5013395;28;20069;-82
2022/07/03 09:55:57;;;;;;;11.75;7.18;;;;;;;30.57;54.72;93495.88;5013265;28;20096;-80
2022/07/03 09:58:24;;;;;;;9.93;7.25;;;;;;;30.40;55.24;93481.72;5013329;28;20132;-80
2022/07/03 10:00:52;;;;;;;8.57;6.47;;;;;;;31.32;54.46;93488.72;5012815;28;20575;-80
2022/07/03 10:03:22;;;;;;;8.77;6.72;;;;;;;31.46;47.18;93495.53;5013210;28;20151;-81
2022/07/03 10:05:48;;;;;;;10.68;5.90;;;;;;;31.79;44.54;93483.19;5002679;28;20141;-81
2022/07/03 10:08:17;;;;;;;10.02;6.25;;;;;;;31.98;46.31;93470.06;5009568;28;20101;-80
2022/07/03 10:10:46;;;;;;;6.57;5.80;;;;;;;32.44;45.31;93492.09;5012669;28;20085;-80
2022/07/03 10:13:14;;;;;;;9.85;5.75;;;;;;;32.89;45.50;93471.47;5012574;28;20045;-80
2022/07/03 10:15:42;;;;;;;7.15;5.47;;;;;;;32.18;45.20;93475.50;5012727;28;20041;-80
2022/07/03 10:18:12;;;;;;;6.53;5.35;;;;;;;32.64;44.77;93474.34;5012343;28;20564;-82
2022/07/03 10:20:41;;;;;;;7.47;5.97;;;;;;;32.60;42.96;93476.91;5011700;28;20046;-80
2022/07/03 10:23:08;;;;;;;6.20;5.25;;;;;;;32.43;42.23;93474.59;5012570;28;20050;-80
2022/07/03 10:25:36;;;;;;;9.75;5.32;;;;;;;32.08;44.61;93468.03;4993643;28;20054;-80
2022/07/03 10:28:03;;;;;;;8.50;5.13;;;;;;;31.76;44.81;93473.22;5011460;28;20100;-80
2022/07/03 10:30:31;;;;;;;9.07;5.55;;;;;;;32.62;45.36;93461.38;5012363;28;20084;-78
2022/07/03 10:32:58;;;;;;;8.70;5.50;;;;;;;33.34;41.53;93453.47;5012238;28;20069;-79
2022/07/03 10:46:46;;;;;;;7.47;4.22;;;;;;;33.31;40.22;93449.63;5012037;28;20112;-80
2022/07/03 10:49:13;;;;;;;5.82;4.45;;;;;;;34.04;38.68;93442.22;5012092;28;20069;-81
2022/07/03 10:51:55;;;;;;;7.30;4.25;;;;;;;33.69;36.56;93454.56;5011672;28;20108;-81
2022/07/03 10:54:23;;;;;;;8.38;4.53;;;;;;;33.97;35.61;93440.22;5011933;28;20565;-80
2022/07/03 10:57:13;;;;;;;6.35;3.88;;;;;;;33.55;37.06;93425.75;5012062;28;20165;-79
2022/07/03 11:00:08;;;;;;;7.20;4.30;;;;;;;32.97;37.85;93433.31;5011732;28;20571;-79
2022/07/03 11:02:37;;;;;;;6.30;3.80;;;;;;;32.37;39.51;93434.19;5011404;28;20073;-79
2022/07/03 11:05:24;;;;;;;5.60;3.92;;;;;;;32.44;38.77;93428.28;5011866;28;20461;-79
2022/07/03 11:08:14;;;;;;;5.55;3.88;;;;;;;31.75;38.92;93431.84;5011666;28;20510;-80
2022/07/03 11:10:42;;;;;;;5.82;4.28;;;;;;;32.51;38.48;93421.25;5012118;28;20042;-79
2022/07/03 11:13:22;;;;;;;8.73;4.03;;;;;;;31.45;38.87;93428.44;5011936;28;20096;-80
2022/07/03 11:15:51;;;;;;;5.47;3.83;;;;;;;31.66;39.19;93419.47;5012015;28;20046;-79
2022/07/03 11:18:29;;;;;;;6.47;4.25;;;;;;;32.29;40.14;93414.63;5011539;28;20050;-79
2022/07/03 11:21:30;;;;;;;5.75;4.00;;;;;;;32.29;38.59;93413.88;5011576;28;20561;-80
2022/07/03 11:24:44;;;;;;;5.55;3.65;;;;;;;31.68;39.69;93401.34;5011060;28;20506;-80
2022/07/03 11:27:17;;;;;;;10.40;4.03;;;;;;;32.23;38.68;93405.38;5011014;28;20497;-80
2022/07/03 11:29:49;;;;;;;4.82;3.72;;;;;;;32.66;39.29;93400.31;5011108;28;20049;-79
2022/07/03 11:32:57;;;;;;;5.70;3.67;;;;;;;32.98;37.91;93407.47;5011022;28;20570;-79
2022/07/03 11:35:53;;;;;;;4.93;3.28;;;;;;;33.15;36.03;93408.97;4947259;29;20047;-79
2022/07/03 11:38:29;;;;;;;4.32;3.33;;;;;;;33.87;36.10;93398.94;4947993;29;20550;-80
2022/07/03 11:40:57;;;;;;;;;;;;;;;32.93;34.84;93401.28;4996185;28;20046;-80
2022/07/03 11:43:24;;;;;;;5.97;3.35;;;;;;;33.41;36.72;93395.03;5010713;28;19976;-79
2022/07/03 11:45:51;;;;;;;5.65;3.63;;;;;;;32.78;35.19;93396.78;5010961;28;20053;-80
2022/07/03 11:48:20;;;;;;;7.53;3.88;;;;;;;32.61;36.47;93389.94;5010596;28;20104;-79
2022/07/03 11:50:48;;;;;;;4.97;3.78;;;;;;;31.31;37.94;93391.66;5010695;28;20050;-81
2022/07/03 11:53:26;;;;;;;5.38;3.70;;;;;;;31.09;39.77;93392.13;5010556;28;20061;-79